createdAt,value
2022-12-09T00:00:14.779Z,5.38
2022-12-09T00:03:21.728Z,5.90
2022-12-09T00:06:27.650Z,5.00
2022-12-09T00:09:29.520Z,5.28
2022-12-09T00:12:31.278Z,6.38
2022-12-09T00:15:33.305Z,6.53
2022-12-09T00:18:36.056Z,8.52
2022-12-09T00:21:38.087Z,7.70
2022-12-09T00:24:39.904Z,6.38
2022-12-09T00:27:41.715Z,7.95
2022-12-09T00:30:43.395Z,6.38
2022-12-09T00:33:46.012Z,6.43
2022-12-09T00:36:48.069Z,7.00
2022-12-09T00:39:49.797Z,7.55
2022-12-09T00:42:51.617Z,5.93
2022-12-09T00:45:53.272Z,6.53
2022-12-09T00:48:55.330Z,6.43
2022-12-09T00:51:57.132Z,6.10
2022-12-09T00:54:58.934Z,5.88
2022-12-09T00:58:00.673Z,6.28
2022-12-09T01:01:02.631Z,6.40
2022-12-09T01:04:08.785Z,5.68
2022-12-09T01:07:11.002Z,5.40
2022-12-09T01:10:12.708Z,5.88
2022-12-09T01:13:15.849Z,6.15
2022-12-09T01:16:24.979Z,4.90
2022-12-09T01:19:26.928Z,5.13
2022-12-09T01:22:29.079Z,5.55
2022-12-09T01:25:32.914Z,6.00
2022-12-09T01:28:36.493Z,5.53
2022-12-09T01:31:38.375Z,4.93
2022-12-09T01:34:40.381Z,5.28
2022-12-09T01:37:42.612Z,5.75
2022-12-09T01:40:47.697Z,5.68
2022-12-09T01:44:09.981Z,5.13
2022-12-09T01:47:22.016Z,5.50
2022-12-09T01:50:26.574Z,5.60
2022-12-09T01:53:38.809Z,5.45
2022-12-09T01:56:41.551Z,5.45
2022-12-09T01:59:45.942Z,6.13
2022-12-09T02:02:49.664Z,5.47
2022-12-09T02:05:54.083Z,7.65
2022-12-09T02:08:57.154Z,6.72
2022-12-09T02:12:10.585Z,6.18
2022-12-09T02:15:21.769Z,5.70
2022-12-09T02:18:24.119Z,6.20
2022-12-09T02:21:35.309Z,5.35
2022-12-09T02:25:05.201Z,5.78
2022-12-09T02:28:17.913Z,5.93
2022-12-09T02:31:20.473Z,5.25
2022-12-09T02:34:26.940Z,5.10
2022-12-09T02:37:42.319Z,6.03
2022-12-09T02:40:53.354Z,5.97
2022-12-09T02:44:18.721Z,6.32
2022-12-09T02:47:25.252Z,6.35
2022-12-09T02:50:33.294Z,6.15
2022-12-09T02:53:38.785Z,6.32
2022-12-09T02:56:50.336Z,7.80
2022-12-09T02:59:53.063Z,5.20
2022-12-09T03:02:59.555Z,5.07
2022-12-09T03:06:08.581Z,6.80
2022-12-09T03:09:18.503Z,6.07
2022-12-09T03:12:21.988Z,6.20
2022-12-09T03:15:28.195Z,5.50
2022-12-09T03:18:33.470Z,6.50
2022-12-09T03:21:39.479Z,7.00
2022-12-09T03:24:54.385Z,5.27
2022-12-09T03:28:04.895Z,6.45
2022-12-09T03:31:13.145Z,8.27
2022-12-09T03:34:20.178Z,8.35
2022-12-09T03:37:22.572Z,7.75
2022-12-09T03:40:28.413Z,7.90
2022-12-09T03:43:34.844Z,7.70
2022-12-09T03:46:36.973Z,7.20
2022-12-09T03:49:39.784Z,6.95
2022-12-09T03:52:53.447Z,7.15
2022-12-09T03:56:06.781Z,7.10
2022-12-09T03:59:14.421Z,7.57
2022-12-09T04:02:17.431Z,6.60
2022-12-09T04:05:19.725Z,7.35
2022-12-09T04:08:21.498Z,7.57
2022-12-09T04:11:23.619Z,6.95
2022-12-09T04:14:25.473Z,7.25
2022-12-09T04:17:27.382Z,7.95
2022-12-09T04:20:29.155Z,6.70
2022-12-09T04:23:30.992Z,7.65
2022-12-09T04:26:32.944Z,8.15
2022-12-09T04:29:35.017Z,8.93
2022-12-09T04:32:37.283Z,6.80
2022-12-09T04:35:39.209Z,8.45
2022-12-09T04:38:42.928Z,9.55
2022-12-09T04:41:44.675Z,8.27
2022-12-09T04:44:46.601Z,8.35
2022-12-09T04:47:48.584Z,8.70
2022-12-09T04:50:50.416Z,9.10
2022-12-09T04:53:52.191Z,8.38
2022-12-09T04:56:54.137Z,8.52
2022-12-09T04:59:55.950Z,8.77
2022-12-09T05:02:58.092Z,7.88
2022-12-09T05:06:00.600Z,9.93
2022-12-09T05:09:03.527Z,9.40
2022-12-09T05:12:05.818Z,8.02
2022-12-09T05:15:08.394Z,11.20
2022-12-09T05:18:10.352Z,10.88
2022-12-09T05:21:15.115Z,11.93
2022-12-09T05:24:17.270Z,9.50
2022-12-09T05:27:19.217Z,12.48
2022-12-09T05:30:20.854Z,12.85
2022-12-09T05:33:22.626Z,13.40
2022-12-09T05:36:27.662Z,11.00
2022-12-09T05:39:29.812Z,11.23
2022-12-09T05:42:35.155Z,11.00
2022-12-09T05:45:39.753Z,9.60
2022-12-09T05:48:42.430Z,10.52
2022-12-09T05:51:44.365Z,9.30
2022-12-09T05:54:46.249Z,10.13
2022-12-09T05:57:48.808Z,13.00
2022-12-09T06:00:50.865Z,11.30
2022-12-09T06:03:55.173Z,11.38
2022-12-09T06:06:57.366Z,11.48
2022-12-09T06:09:59.743Z,82.20
2022-12-09T06:13:02.045Z,63.22
2022-12-09T06:16:06.140Z,47.35
2022-12-09T06:19:12.254Z,15.85
2022-12-09T06:22:14.531Z,17.30
2022-12-09T06:25:16.477Z,14.60
2022-12-09T06:28:19.689Z,16.02
2022-12-09T06:31:22.175Z,14.73
2022-12-09T06:34:24.815Z,15.60
2022-12-09T06:37:26.879Z,15.32
2022-12-09T06:40:28.971Z,16.60
2022-12-09T06:43:30.710Z,14.57
2022-12-09T06:46:32.760Z,13.05
2022-12-09T06:49:34.997Z,11.48
2022-12-09T06:52:38.299Z,12.63
2022-12-09T06:55:40.404Z,12.40
2022-12-09T06:58:45.085Z,11.65
2022-12-09T07:01:47.544Z,13.57
2022-12-09T07:04:54.355Z,12.90
2022-12-09T07:10:58.122Z,13.95
2022-12-09T07:14:01.354Z,14.05
2022-12-09T07:17:03.884Z,15.48
2022-12-09T07:20:07.748Z,12.05
2022-12-09T07:23:10.277Z,16.45
2022-12-09T07:26:12.028Z,14.20
2022-12-09T07:29:14.041Z,10.85
2022-12-09T07:32:16.281Z,14.50
2022-12-09T07:35:18.236Z,15.35
2022-12-09T07:38:20.706Z,13.43
2022-12-09T07:41:23.023Z,14.82
2022-12-09T07:44:28.296Z,13.13
2022-12-09T07:47:30.377Z,13.95
2022-12-09T07:50:32.569Z,14.25
2022-12-09T07:53:35.920Z,17.00
2022-12-09T07:56:37.915Z,17.88
2022-12-09T07:59:39.816Z,17.90
2022-12-09T08:02:41.628Z,16.35
2022-12-09T08:06:02.460Z,16.80
2022-12-09T08:09:08.446Z,16.77
2022-12-09T08:12:11.942Z,20.80
2022-12-09T08:15:14.824Z,20.10
2022-12-09T08:18:16.738Z,20.73
2022-12-09T08:21:24.339Z,18.98
2022-12-09T08:24:26.747Z,17.42
2022-12-09T08:27:28.868Z,16.40
2022-12-09T08:30:30.871Z,12.65
2022-12-09T08:33:34.335Z,13.50
2022-12-09T08:36:37.203Z,15.43
2022-12-09T08:39:39.847Z,16.15
2022-12-09T08:42:41.860Z,20.77
2022-12-09T08:45:44.287Z,19.08
2022-12-09T08:48:46.497Z,17.30
2022-12-09T08:51:50.936Z,21.45
2022-12-09T08:54:53.018Z,22.85
2022-12-09T08:57:54.858Z,18.58
2022-12-09T09:00:56.743Z,16.13
2022-12-09T09:04:14.611Z,17.65
2022-12-09T09:07:16.935Z,14.10
2022-12-09T09:10:19.439Z,15.02
2022-12-09T09:13:21.326Z,17.40
2022-12-09T09:16:25.784Z,17.20
2022-12-09T09:19:27.706Z,15.85
2022-12-09T09:22:29.901Z,15.55
2022-12-09T09:25:31.844Z,12.63
2022-12-09T09:28:34.080Z,13.57
2022-12-09T09:31:35.996Z,13.98
2022-12-09T09:34:38.539Z,14.02
2022-12-09T09:37:40.365Z,12.57
2022-12-09T09:40:42.353Z,12.52
2022-12-09T09:43:45.229Z,14.13
2022-12-09T09:46:50.074Z,13.75
2022-12-09T09:50:02.561Z,17.02
2022-12-09T09:53:24.058Z,15.43
2022-12-09T09:56:31.470Z,14.80
2022-12-09T09:59:53.202Z,17.10
2022-12-09T10:03:00.730Z,15.50
2022-12-09T10:06:28.008Z,15.43
2022-12-09T10:10:08.672Z,12.18
2022-12-09T10:13:34.284Z,12.45
2022-12-09T10:16:42.640Z,14.15
2022-12-09T10:19:51.192Z,15.38
2022-12-09T10:23:02.905Z,13.32
2022-12-09T10:26:06.842Z,12.13
2022-12-09T10:29:20.054Z,10.77
2022-12-09T10:32:25.976Z,12.93
2022-12-09T10:35:30.833Z,13.02
2022-12-09T10:38:37.730Z,13.82
2022-12-09T10:42:06.281Z,13.85
2022-12-09T10:45:10.107Z,15.50
2022-12-09T10:48:37.676Z,18.30
2022-12-09T10:51:51.000Z,13.25
2022-12-09T10:54:52.985Z,14.13
2022-12-09T10:58:15.743Z,14.57
2022-12-09T11:01:18.553Z,14.20
2022-12-09T11:04:33.818Z,14.20
2022-12-09T11:07:36.375Z,13.32
2022-12-09T11:10:39.145Z,13.95
2022-12-09T11:13:43.427Z,13.23
2022-12-09T11:16:45.722Z,13.48
2022-12-09T11:20:17.629Z,16.08
2022-12-09T11:23:21.202Z,13.18
2022-12-09T11:26:33.789Z,13.25
2022-12-09T11:29:35.707Z,12.32
2022-12-09T11:32:59.769Z,13.80
2022-12-09T11:36:11.511Z,14.27
2022-12-09T11:39:28.952Z,12.52
2022-12-09T11:42:30.848Z,11.57
2022-12-09T11:45:38.556Z,12.02
2022-12-09T11:48:47.885Z,12.98
2022-12-09T11:52:27.212Z,11.48
2022-12-09T11:55:29.019Z,13.30
2022-12-09T11:58:35.743Z,12.27
2022-12-09T12:04:59.809Z,11.65
2022-12-09T12:08:28.571Z,13.13
2022-12-09T12:11:40.821Z,15.85
2022-12-09T12:14:43.471Z,13.20
2022-12-09T12:17:51.880Z,12.38
2022-12-09T12:20:53.499Z,14.32
2022-12-09T12:24:20.379Z,15.15
2022-12-09T12:27:27.999Z,14.98
2022-12-09T12:31:01.848Z,14.65
2022-12-09T12:34:28.295Z,14.80
2022-12-09T12:37:55.523Z,15.48
2022-12-09T12:41:15.722Z,16.13
2022-12-09T12:45:11.672Z,14.65
2022-12-09T12:48:29.713Z,12.45
2022-12-09T12:51:34.596Z,14.63
2022-12-09T12:54:45.350Z,14.52
2022-12-09T12:57:59.460Z,15.50
2022-12-09T13:01:08.803Z,17.23
2022-12-09T13:04:24.120Z,17.98
2022-12-09T13:08:07.678Z,15.60
2022-12-09T13:11:47.876Z,15.27
2022-12-09T13:14:52.174Z,16.30
2022-12-09T13:17:54.580Z,16.77
2022-12-09T13:20:58.223Z,15.15
2022-12-09T13:24:27.178Z,15.45
2022-12-09T13:27:35.748Z,14.30
2022-12-09T13:30:54.014Z,13.82
2022-12-09T13:34:01.926Z,14.18
2022-12-09T13:37:03.898Z,13.18
2022-12-09T13:40:38.924Z,13.25
2022-12-09T13:43:40.702Z,13.23
2022-12-09T13:46:43.046Z,15.18
2022-12-09T13:49:55.666Z,12.07
2022-12-09T13:53:02.439Z,12.15
2022-12-09T13:59:42.976Z,11.23
2022-12-09T14:03:29.766Z,12.27
2022-12-09T14:06:40.222Z,13.43
2022-12-09T14:09:53.025Z,17.35
2022-12-09T14:12:57.756Z,13.55
2022-12-09T14:16:24.823Z,16.10
2022-12-09T14:19:31.465Z,19.40
2022-12-09T14:22:35.460Z,16.25
2022-12-09T14:25:37.320Z,15.80
2022-12-09T14:28:50.778Z,13.90
2022-12-09T14:31:55.429Z,12.52
2022-12-09T14:35:00.031Z,12.00
2022-12-09T14:38:20.304Z,10.75
2022-12-09T14:41:39.959Z,14.75
2022-12-09T14:45:14.775Z,14.48
2022-12-09T14:48:25.225Z,14.88
2022-12-09T14:51:37.474Z,11.68
2022-12-09T14:54:45.501Z,13.43
2022-12-09T14:57:48.521Z,11.50
2022-12-09T15:01:02.916Z,12.10
2022-12-09T15:04:05.861Z,12.18
2022-12-09T15:07:16.718Z,13.50
2022-12-09T15:10:32.218Z,12.82
2022-12-09T15:13:37.361Z,12.43
2022-12-09T15:16:46.283Z,11.73
2022-12-09T15:20:00.112Z,12.00
2022-12-09T15:23:29.561Z,13.95
2022-12-09T15:26:33.255Z,15.77
2022-12-09T15:29:34.973Z,13.30
2022-12-09T15:32:39.747Z,13.02
2022-12-09T15:35:43.655Z,12.10
2022-12-09T15:38:53.546Z,12.20
2022-12-09T15:42:10.306Z,14.02
2022-12-09T15:45:16.073Z,14.50
2022-12-09T15:48:23.834Z,12.55
2022-12-09T15:51:27.804Z,13.70
2022-12-09T15:54:35.687Z,13.48
2022-12-09T15:57:38.292Z,14.43
2022-12-09T16:00:43.755Z,14.35
2022-12-09T16:03:49.552Z,13.35
2022-12-09T16:06:51.397Z,13.63
2022-12-09T16:10:04.067Z,11.75
2022-12-09T16:13:11.782Z,12.70
2022-12-09T16:16:26.767Z,10.52
2022-12-09T16:19:38.328Z,19.75
2022-12-09T16:22:41.790Z,19.15
2022-12-09T16:25:48.131Z,21.52
2022-12-09T16:28:55.360Z,19.65
2022-12-09T16:32:15.753Z,18.33
2022-12-09T16:35:17.300Z,19.80
2022-12-09T16:38:19.510Z,21.48
2022-12-09T16:42:03.109Z,20.42
2022-12-09T16:45:29.523Z,16.55
2022-12-09T16:48:31.492Z,14.30
2022-12-09T16:51:33.457Z,14.00
2022-12-09T16:54:35.223Z,12.95
2022-12-09T16:57:36.896Z,13.98
2022-12-09T17:00:38.615Z,12.98
2022-12-09T17:03:47.938Z,14.98
2022-12-09T17:06:49.577Z,20.35
2022-12-09T17:09:51.284Z,13.52
2022-12-09T17:12:53.159Z,14.32
2022-12-09T17:15:58.521Z,13.27
2022-12-09T17:19:00.503Z,13.10
2022-12-09T17:22:02.167Z,12.82
2022-12-09T17:25:04.492Z,14.50
2022-12-09T17:28:06.910Z,14.55
2022-12-09T17:31:14.539Z,15.85
2022-12-09T17:34:16.445Z,14.18
2022-12-09T17:37:18.101Z,16.35
2022-12-09T17:40:19.893Z,16.30
2022-12-09T17:43:21.634Z,18.27
2022-12-09T17:46:23.598Z,16.90
2022-12-09T17:49:25.319Z,20.30
2022-12-09T17:52:27.155Z,23.48
2022-12-09T17:55:29.157Z,24.67
2022-12-09T17:58:30.825Z,25.15
2022-12-09T18:01:34.167Z,22.95
2022-12-09T18:04:35.958Z,26.38
2022-12-09T18:07:37.800Z,25.23
2022-12-09T18:10:39.603Z,26.38
2022-12-09T18:13:41.316Z,25.73
2022-12-09T18:16:43.427Z,27.80
2022-12-09T18:19:45.191Z,24.67
2022-12-09T18:22:46.827Z,25.58
2022-12-09T18:25:48.842Z,23.10
2022-12-09T18:28:55.001Z,26.02
2022-12-09T18:31:57.087Z,23.08
2022-12-09T18:34:58.720Z,24.17
2022-12-09T18:38:09.684Z,22.17
2022-12-09T18:41:17.929Z,24.10
2022-12-09T18:44:19.955Z,23.63
2022-12-09T18:47:21.588Z,22.25
2022-12-09T18:50:23.191Z,22.63
2022-12-09T18:53:25.520Z,19.73
2022-12-09T18:56:27.482Z,23.33
2022-12-09T18:59:31.177Z,24.83
2022-12-09T19:02:33.037Z,23.88
2022-12-09T19:05:39.294Z,27.38
2022-12-09T19:08:40.944Z,30.75
2022-12-09T19:11:44.603Z,28.27
2022-12-09T19:14:46.199Z,27.40
2022-12-09T19:17:47.834Z,26.77
2022-12-09T19:20:49.478Z,25.70
2022-12-09T19:23:51.237Z,23.08
2022-12-09T19:26:54.844Z,29.83
2022-12-09T19:29:56.515Z,25.77
2022-12-09T19:32:58.098Z,23.90
2022-12-09T19:36:03.794Z,20.48
2022-12-09T19:39:08.298Z,18.20
2022-12-09T19:42:09.990Z,16.95
2022-12-09T19:45:14.226Z,19.38
2022-12-09T19:48:16.291Z,21.02
2022-12-09T19:51:19.497Z,20.52
2022-12-09T19:54:28.123Z,23.38
2022-12-09T19:57:30.269Z,23.38
2022-12-09T20:00:35.600Z,19.20
2022-12-09T20:03:41.794Z,19.92
2022-12-09T20:06:44.239Z,19.60
2022-12-09T20:09:45.975Z,20.50
2022-12-09T20:12:47.675Z,21.00
2022-12-09T20:15:49.390Z,21.25
2022-12-09T20:18:53.502Z,18.88
2022-12-09T20:21:55.303Z,21.40
2022-12-09T20:24:56.961Z,20.25
2022-12-09T20:27:58.560Z,20.70
2022-12-09T20:31:31.588Z,24.80
2022-12-09T20:34:33.389Z,20.13
2022-12-09T20:37:36.089Z,21.00
2022-12-09T20:40:40.672Z,17.10
2022-12-09T20:43:44.786Z,19.27
2022-12-09T20:46:51.988Z,19.70
2022-12-09T20:49:53.665Z,20.05
2022-12-09T20:52:55.505Z,19.10
2022-12-09T20:55:58.865Z,23.75
2022-12-09T20:59:01.103Z,23.55
2022-12-09T21:02:02.810Z,23.90
2022-12-09T21:05:04.851Z,21.80
2022-12-09T21:08:06.507Z,20.65
2022-12-09T21:11:16.454Z,20.05
2022-12-09T21:14:19.005Z,16.42
2022-12-09T21:17:20.647Z,17.30
2022-12-09T21:20:23.112Z,16.73
2022-12-09T21:23:33.668Z,19.40
2022-12-09T21:26:36.150Z,20.17
2022-12-09T21:29:37.917Z,17.67
2022-12-09T21:32:39.943Z,15.48
2022-12-09T21:35:45.344Z,14.07
2022-12-09T21:38:47.698Z,14.98
2022-12-09T21:41:49.312Z,16.00
2022-12-09T21:44:51.278Z,14.65
2022-12-09T21:47:53.079Z,17.33
2022-12-09T21:50:59.409Z,15.60
2022-12-09T21:54:01.682Z,15.32
2022-12-09T21:57:04.702Z,14.57
2022-12-09T22:00:08.747Z,14.38
2022-12-09T22:03:10.794Z,13.32
2022-12-09T22:06:13.250Z,14.25
2022-12-09T22:09:16.358Z,12.45
2022-12-09T22:12:17.942Z,14.70
2022-12-09T22:15:19.968Z,14.65
2022-12-09T22:18:21.625Z,13.68
2022-12-09T22:21:26.247Z,12.98
2022-12-09T22:24:28.554Z,14.32
2022-12-09T22:27:30.262Z,26.05
2022-12-09T22:30:32.084Z,27.15
2022-12-09T22:33:33.751Z,17.85
2022-12-09T22:36:37.062Z,15.02
2022-12-09T22:39:39.019Z,14.85
2022-12-09T22:42:40.710Z,26.95
2022-12-09T22:45:42.287Z,27.00
2022-12-09T22:48:44.657Z,34.15
2022-12-09T22:51:47.058Z,18.95
2022-12-09T22:54:48.684Z,17.63
2022-12-09T22:57:51.804Z,19.48
2022-12-09T23:00:53.864Z,18.42
2022-12-09T23:03:57.901Z,15.15
2022-12-09T23:06:59.670Z,15.23
2022-12-09T23:10:02.219Z,16.27
2022-12-09T23:13:04.396Z,26.65
2022-12-09T23:16:06.549Z,31.77
2022-12-09T23:19:10.777Z,20.35
2022-12-09T23:22:12.601Z,15.32
2022-12-09T23:25:15.464Z,15.93
2022-12-09T23:28:17.832Z,15.13
2022-12-09T23:31:26.029Z,16.65
2022-12-09T23:34:27.758Z,17.48
2022-12-09T23:37:29.437Z,16.67
2022-12-09T23:40:31.014Z,16.10
2022-12-09T23:43:37.546Z,14.55
2022-12-09T23:46:39.562Z,16.30
2022-12-09T23:49:41.277Z,16.88
2022-12-09T23:52:42.953Z,16.67
2022-12-09T23:55:44.722Z,14.90
2022-12-09T23:58:47.375Z,16.67
